createdAt,value
2022-09-27T00:08:19.921Z,11.2
2022-09-27T00:23:29.774Z,11.2
2022-09-27T00:38:39.247Z,11.3
2022-09-27T00:53:48.622Z,11.3
2022-09-27T01:08:58.136Z,11.2
2022-09-27T01:24:07.319Z,11.1
2022-09-27T01:39:16.936Z,11
2022-09-27T01:54:27.097Z,11.1
2022-09-27T02:09:37.098Z,11.3
2022-09-27T02:24:46.683Z,11.4
2022-09-27T02:39:55.827Z,11.4
2022-09-27T02:55:05.530Z,11.4
2022-09-27T03:10:15.055Z,11.6
2022-09-27T03:25:24.527Z,11.5
2022-09-27T03:40:33.940Z,11.4
2022-09-27T03:55:43.626Z,11.2
2022-09-27T04:10:52.871Z,11.1
2022-09-27T04:26:02.651Z,11.1
2022-09-27T04:41:11.919Z,11
2022-09-27T04:56:21.131Z,10.9
2022-09-27T05:11:30.519Z,10.8
2022-09-27T05:26:40.047Z,10.8
2022-09-27T05:56:59.473Z,10.7
2022-09-27T06:12:09.009Z,10.7
2022-09-27T06:27:18.854Z,10.8
2022-09-27T06:42:28.715Z,10.8
2022-09-27T06:57:38.492Z,10.7
2022-09-27T07:12:47.567Z,10.7
2022-09-27T07:27:59.201Z,10.8
2022-09-27T07:43:09.010Z,10.9
2022-09-27T07:58:18.336Z,10.8
2022-09-27T08:13:27.447Z,10.7
2022-09-27T08:28:37.098Z,10.6
2022-09-27T08:43:47.327Z,10.8
2022-09-27T08:58:59.593Z,10.9
2022-09-27T09:14:12.829Z,11
2022-09-27T09:29:24.306Z,11.4
2022-09-27T09:44:35.165Z,11.5
2022-09-27T10:03:16.996Z,12.5
2022-09-27T10:18:28.549Z,12.1
2022-09-27T10:33:38.109Z,12.1
2022-09-27T10:48:47.732Z,12.3
2022-09-27T11:03:56.956Z,12.4
2022-09-27T11:19:06.526Z,12.5
2022-09-27T11:34:24.876Z,12.4
2022-09-27T11:49:33.929Z,11.5
2022-09-27T12:04:42.602Z,11
2022-09-27T12:19:51.711Z,10.8
2022-09-27T12:35:00.894Z,10.7
2022-09-27T12:50:10.451Z,10.6
2022-09-27T13:05:19.809Z,10.7
2022-09-27T13:20:29.325Z,10.9
2022-09-27T13:35:39.320Z,11.5
2022-09-27T13:50:49.401Z,11.7
2022-09-27T14:06:00.042Z,11.5
2022-09-27T14:21:09.216Z,11.4
2022-09-27T14:36:23.005Z,11.2
2022-09-27T14:51:33.368Z,10.7
2022-09-27T15:06:42.565Z,10.4
2022-09-27T15:21:52.011Z,10.4
2022-09-27T15:37:01.232Z,10.4
2022-09-27T15:52:10.929Z,10.4
2022-09-27T16:07:20.478Z,10.2
2022-09-27T16:22:29.730Z,10.2
2022-09-27T16:37:39.368Z,10.3
2022-09-27T16:52:49.038Z,10.3
2022-09-27T17:07:59.426Z,10.4
2022-09-27T17:23:09.228Z,10.3
2022-09-27T17:38:18.443Z,10.3
2022-09-27T17:53:27.916Z,10.1
2022-09-27T18:08:37.424Z,10
2022-09-27T18:23:47.118Z,9.9
2022-09-27T18:38:56.649Z,9.9
2022-09-27T18:54:05.828Z,10
2022-09-27T19:09:15.129Z,9.9
2022-09-27T19:24:24.565Z,9.8
2022-09-27T19:39:33.579Z,9.6
2022-09-27T19:54:42.360Z,9.6
2022-09-27T20:09:51.862Z,9.6
2022-09-27T20:25:01.042Z,9.6
2022-09-27T20:40:10.625Z,9.7
2022-09-27T20:55:20.603Z,9.6
2022-09-27T21:10:29.746Z,9.5
2022-09-27T21:25:39.238Z,9.6
2022-09-27T21:40:48.295Z,9.5
2022-09-27T21:56:01.096Z,9.5
2022-09-27T22:11:10.515Z,9.6
2022-09-27T22:26:20.137Z,9.6
2022-09-27T22:41:29.107Z,9.6
2022-09-27T22:56:38.549Z,9.5
2022-09-27T23:11:48.493Z,9.4
2022-09-27T23:26:57.910Z,9.4
2022-09-27T23:42:07.569Z,9.4
2022-09-27T23:57:17.376Z,9.4
